createdAt,value
2022-07-29T00:02:08.604Z,1.98
2022-07-29T00:04:36.840Z,2.20
2022-07-29T00:07:04.792Z,2.20
2022-07-29T00:09:32.592Z,2.10
2022-07-29T00:12:02.918Z,2.47
2022-07-29T00:14:31.021Z,2.33
2022-07-29T00:16:58.853Z,2.60
2022-07-29T00:19:26.596Z,2.25
2022-07-29T00:21:54.528Z,2.45
2022-07-29T00:24:22.435Z,2.17
2022-07-29T00:26:50.199Z,2.05
2022-07-29T00:29:35.349Z,2.35
2022-07-29T00:32:03.518Z,2.78
2022-07-29T00:34:48.865Z,2.22
2022-07-29T00:37:16.655Z,2.55
2022-07-29T00:39:44.487Z,2.72
2022-07-29T00:42:12.343Z,2.50
2022-07-29T00:44:42.444Z,2.30
2022-07-29T00:47:11.812Z,2.63
2022-07-29T00:49:42.322Z,2.53
2022-07-29T00:52:11.581Z,2.50
2022-07-29T00:54:44.474Z,2.55
2022-07-29T00:57:13.632Z,2.28
2022-07-29T00:59:42.749Z,2.97
2022-07-29T01:02:10.643Z,2.40
2022-07-29T01:04:38.582Z,2.97
2022-07-29T01:07:06.569Z,2.85
2022-07-29T01:09:46.320Z,2.35
2022-07-29T01:12:16.843Z,2.93
2022-07-29T01:14:47.522Z,2.88
2022-07-29T01:17:22.889Z,3.03
2022-07-29T01:19:57.428Z,2.83
2022-07-29T01:22:33.826Z,2.92
2022-07-29T01:25:14.566Z,3.00
2022-07-29T01:28:01.464Z,2.95
2022-07-29T01:30:33.713Z,2.80
2022-07-29T01:33:07.963Z,3.28
2022-07-29T01:35:40.351Z,2.80
2022-07-29T01:38:12.746Z,3.30
2022-07-29T01:40:45.334Z,3.30
2022-07-29T01:43:18.037Z,3.10
2022-07-29T01:45:52.685Z,3.50
2022-07-29T01:48:24.043Z,3.70
2022-07-29T01:50:55.737Z,3.50
2022-07-29T01:53:38.302Z,3.70
2022-07-29T01:56:08.326Z,4.20
2022-07-29T01:58:39.145Z,4.10
2022-07-29T02:01:10.985Z,4.05
2022-07-29T02:03:41.052Z,4.23
2022-07-29T02:06:11.390Z,3.70
2022-07-29T02:08:41.154Z,3.73
2022-07-29T02:11:10.346Z,3.57
2022-07-29T02:13:39.838Z,3.38
2022-07-29T02:16:11.494Z,4.07
2022-07-29T02:18:42.897Z,4.15
2022-07-29T02:21:14.919Z,3.92
2022-07-29T02:23:50.345Z,3.95
2022-07-29T02:26:21.128Z,4.30
2022-07-29T02:28:50.490Z,4.40
2022-07-29T02:31:22.791Z,4.20
2022-07-29T02:33:52.272Z,4.43
2022-07-29T02:36:23.592Z,3.90
2022-07-29T02:38:53.611Z,4.00
2022-07-29T02:41:25.305Z,4.00
2022-07-29T02:43:57.943Z,3.93
2022-07-29T02:46:32.596Z,3.70
2022-07-29T02:49:06.236Z,3.78
2022-07-29T02:51:44.823Z,4.30
2022-07-29T02:54:18.971Z,4.10
2022-07-29T02:56:48.492Z,4.43
2022-07-29T02:59:20.051Z,4.07
2022-07-29T03:01:49.964Z,4.15
2022-07-29T03:04:21.338Z,4.05
2022-07-29T03:06:50.496Z,4.60
2022-07-29T03:09:19.189Z,4.13
2022-07-29T03:11:49.705Z,4.03
2022-07-29T03:14:20.346Z,4.20
2022-07-29T03:16:50.953Z,4.22
2022-07-29T03:19:19.411Z,4.37
2022-07-29T03:21:47.191Z,4.10
2022-07-29T03:24:30.414Z,4.13
2022-07-29T03:26:58.949Z,4.43
2022-07-29T03:29:34.070Z,3.90
2022-07-29T03:32:08.169Z,4.32
2022-07-29T03:34:37.318Z,4.38
2022-07-29T03:37:05.312Z,4.13
2022-07-29T03:39:38.490Z,4.27
2022-07-29T03:42:08.837Z,4.17
2022-07-29T03:44:38.155Z,3.85
2022-07-29T03:47:10.177Z,4.13
2022-07-29T03:49:39.816Z,3.47
2022-07-29T03:52:07.989Z,4.07
2022-07-29T03:54:36.515Z,4.27
2022-07-29T03:57:07.569Z,4.03
2022-07-29T03:59:36.402Z,4.13
2022-07-29T04:02:05.483Z,4.53
2022-07-29T04:04:37.061Z,3.85
2022-07-29T04:07:05.329Z,3.50
2022-07-29T04:09:33.615Z,4.22
2022-07-29T04:12:02.908Z,4.00
2022-07-29T04:14:32.285Z,4.38
2022-07-29T04:17:00.091Z,3.92
2022-07-29T04:19:27.814Z,4.20
2022-07-29T04:21:57.021Z,4.28
2022-07-29T04:24:24.770Z,3.63
2022-07-29T04:26:52.516Z,3.90
2022-07-29T04:29:20.835Z,4.20
2022-07-29T04:31:48.838Z,4.13
2022-07-29T04:34:17.110Z,4.00
2022-07-29T04:36:45.102Z,3.45
2022-07-29T04:39:17.067Z,4.18
2022-07-29T04:41:48.179Z,3.75
2022-07-29T04:44:16.268Z,3.60
2022-07-29T04:46:45.635Z,3.80
2022-07-29T04:49:14.175Z,3.80
2022-07-29T04:51:42.064Z,3.67
2022-07-29T04:54:09.762Z,3.90
2022-07-29T04:56:38.853Z,3.75
2022-07-29T04:59:06.561Z,3.90
2022-07-29T05:01:34.349Z,3.85
2022-07-29T05:04:02.125Z,3.80
2022-07-29T05:06:31.324Z,12.82
2022-07-29T05:08:59.053Z,3.63
2022-07-29T05:11:30.291Z,4.03
2022-07-29T05:13:59.708Z,3.92
2022-07-29T05:16:28.276Z,3.63
2022-07-29T05:18:56.053Z,3.80
2022-07-29T05:21:23.900Z,3.47
2022-07-29T05:23:51.644Z,3.97
2022-07-29T05:26:19.393Z,3.65
2022-07-29T05:28:47.101Z,3.72
2022-07-29T05:31:16.705Z,3.85
2022-07-29T05:33:44.822Z,3.97
2022-07-29T05:36:14.292Z,3.70
2022-07-29T05:38:42.227Z,3.55
2022-07-29T05:41:10.059Z,3.65
2022-07-29T05:43:37.928Z,3.88
2022-07-29T05:46:05.791Z,3.50
2022-07-29T05:48:34.851Z,3.65
2022-07-29T05:51:03.106Z,3.85
2022-07-29T05:53:30.823Z,3.35
2022-07-29T05:55:58.608Z,3.50
2022-07-29T05:58:26.329Z,3.28
2022-07-29T06:00:54.248Z,3.45
2022-07-29T06:03:22.009Z,3.50
2022-07-29T06:05:51.126Z,3.17
2022-07-29T06:08:19.044Z,3.05
2022-07-29T06:10:47.554Z,3.42
2022-07-29T06:13:16.896Z,3.25
2022-07-29T06:15:44.834Z,3.42
2022-07-29T06:18:14.564Z,3.75
2022-07-29T06:20:42.744Z,2.88
2022-07-29T06:23:11.885Z,3.35
2022-07-29T06:25:41.429Z,3.30
2022-07-29T06:28:09.139Z,3.10
2022-07-29T06:30:36.972Z,2.92
2022-07-29T06:33:05.711Z,3.00
2022-07-29T06:35:39.490Z,2.78
2022-07-29T06:38:30.881Z,2.88
2022-07-29T06:41:03.435Z,3.10
2022-07-29T06:43:34.791Z,3.20
2022-07-29T06:46:04.293Z,3.05
2022-07-29T06:48:32.713Z,3.00
2022-07-29T06:51:01.044Z,3.08
2022-07-29T06:53:32.245Z,3.20
2022-07-29T06:56:00.879Z,2.88
2022-07-29T06:58:29.906Z,3.75
2022-07-29T07:00:58.607Z,3.15
2022-07-29T07:03:26.793Z,3.00
2022-07-29T07:05:55.257Z,3.20
2022-07-29T07:08:24.614Z,3.20
2022-07-29T07:10:53.811Z,2.80
2022-07-29T07:13:22.533Z,2.90
2022-07-29T07:15:51.751Z,2.78
2022-07-29T07:18:20.136Z,3.25
2022-07-29T07:20:48.510Z,2.85
2022-07-29T07:23:16.233Z,3.00
2022-07-29T07:25:44.115Z,2.55
2022-07-29T07:28:13.178Z,2.70
2022-07-29T07:30:41.552Z,2.78
2022-07-29T07:33:09.289Z,2.72
2022-07-29T07:35:37.240Z,3.13
2022-07-29T07:38:06.820Z,2.78
2022-07-29T07:40:34.840Z,2.75
2022-07-29T07:43:02.610Z,2.75
2022-07-29T07:45:33.536Z,3.28
2022-07-29T07:48:01.678Z,2.80
2022-07-29T07:50:29.478Z,3.03
2022-07-29T07:52:58.851Z,2.83
2022-07-29T07:55:27.728Z,2.67
2022-07-29T07:57:55.730Z,2.28
2022-07-29T08:00:24.193Z,2.72
2022-07-29T08:02:53.323Z,2.42
2022-07-29T08:05:21.195Z,2.40
2022-07-29T08:07:49.107Z,2.60
2022-07-29T08:10:38.806Z,3.03
2022-07-29T08:13:07.079Z,2.20
2022-07-29T08:15:35.641Z,2.72
2022-07-29T08:18:08.687Z,2.47
2022-07-29T08:20:38.903Z,2.58
2022-07-29T08:23:09.522Z,2.47
2022-07-29T08:25:37.629Z,2.42
2022-07-29T08:28:07.978Z,2.30
2022-07-29T08:30:36.500Z,2.65
2022-07-29T08:33:05.799Z,2.92
2022-07-29T08:35:35.703Z,2.45
2022-07-29T08:38:04.522Z,2.60
2022-07-29T08:40:32.871Z,2.67
2022-07-29T08:43:01.758Z,2.72
2022-07-29T08:45:31.376Z,2.47
2022-07-29T08:47:59.250Z,2.63
2022-07-29T08:50:28.405Z,2.55
2022-07-29T08:52:59.708Z,2.40
2022-07-29T08:55:28.731Z,2.85
2022-07-29T08:57:57.509Z,2.63
2022-07-29T09:00:27.122Z,2.92
2022-07-29T09:03:00.574Z,2.30
2022-07-29T09:05:30.611Z,2.25
2022-07-29T09:07:58.698Z,2.42
2022-07-29T09:10:26.568Z,2.22
2022-07-29T09:12:55.914Z,2.88
2022-07-29T09:15:23.662Z,2.00
2022-07-29T09:17:51.871Z,2.28
2022-07-29T09:20:21.083Z,2.80
2022-07-29T09:22:51.819Z,2.33
2022-07-29T09:25:34.588Z,2.40
2022-07-29T09:28:08.106Z,2.08
2022-07-29T09:30:35.959Z,2.38
2022-07-29T09:33:05.146Z,2.00
2022-07-29T09:35:33.456Z,2.13
2022-07-29T09:38:12.894Z,2.10
2022-07-29T09:40:41.261Z,2.17
2022-07-29T09:43:13.635Z,2.80
2022-07-29T09:45:41.712Z,2.45
2022-07-29T09:48:16.897Z,2.50
2022-07-29T09:50:46.018Z,2.30
2022-07-29T09:53:32.102Z,2.80
2022-07-29T09:56:00.365Z,2.35
2022-07-29T09:58:28.956Z,3.30
2022-07-29T10:00:57.835Z,2.45
2022-07-29T10:03:26.040Z,2.35
2022-07-29T10:06:07.775Z,2.50
2022-07-29T10:08:37.513Z,2.40
2022-07-29T10:11:13.302Z,2.63
2022-07-29T10:13:42.089Z,2.60
2022-07-29T10:16:10.749Z,2.35
2022-07-29T10:18:40.583Z,2.38
2022-07-29T10:21:08.702Z,2.40
2022-07-29T10:23:46.277Z,2.72
2022-07-29T10:26:15.453Z,2.38
2022-07-29T10:28:43.208Z,2.63
2022-07-29T10:31:17.516Z,2.53
2022-07-29T10:33:54.655Z,2.83
2022-07-29T10:36:43.481Z,2.42
2022-07-29T10:39:41.866Z,2.63
2022-07-29T10:42:20.016Z,2.80
2022-07-29T10:44:48.710Z,2.50
2022-07-29T10:47:24.141Z,2.90
2022-07-29T10:49:59.001Z,2.60
2022-07-29T10:52:57.881Z,3.20
2022-07-29T10:55:47.802Z,2.50
2022-07-29T10:58:17.937Z,2.45
2022-07-29T11:00:47.926Z,2.80
2022-07-29T11:03:49.641Z,2.70
2022-07-29T11:07:07.900Z,2.55
2022-07-29T11:09:38.623Z,3.05
2022-07-29T11:12:47.732Z,3.00
2022-07-29T11:15:19.994Z,2.92
2022-07-29T11:18:07.746Z,3.00
2022-07-29T11:20:45.678Z,2.70
2022-07-29T11:23:25.988Z,3.10
2022-07-29T11:26:21.147Z,3.05
2022-07-29T11:28:56.633Z,2.50
2022-07-29T11:31:39.101Z,3.20
2022-07-29T11:34:27.964Z,2.63
2022-07-29T11:37:17.734Z,2.97
2022-07-29T11:39:47.629Z,2.40
2022-07-29T11:42:55.210Z,2.63
2022-07-29T11:45:43.639Z,2.83
2022-07-29T11:48:28.406Z,2.50
2022-07-29T11:50:59.098Z,2.63
2022-07-29T11:53:29.136Z,2.55
2022-07-29T11:56:02.756Z,2.78
2022-07-29T11:58:32.600Z,3.13
2022-07-29T12:01:04.998Z,2.72
2022-07-29T12:03:36.064Z,2.78
2022-07-29T12:06:07.538Z,2.88
2022-07-29T12:08:43.357Z,2.70
2022-07-29T12:11:21.300Z,2.80
2022-07-29T12:13:50.595Z,2.65
2022-07-29T12:16:25.331Z,2.63
2022-07-29T12:19:02.239Z,2.83
2022-07-29T12:21:31.177Z,2.65
2022-07-29T12:24:05.739Z,2.35
2022-07-29T12:26:37.809Z,2.47
2022-07-29T12:29:11.212Z,2.25
2022-07-29T12:31:45.590Z,2.90
2022-07-29T12:34:14.732Z,2.58
2022-07-29T12:36:43.772Z,2.35
2022-07-29T12:39:12.478Z,2.22
2022-07-29T12:41:40.674Z,2.30
2022-07-29T12:44:08.557Z,2.20
2022-07-29T12:46:36.433Z,2.38
2022-07-29T12:49:06.364Z,2.38
2022-07-29T12:51:36.022Z,2.45
2022-07-29T12:54:06.732Z,2.25
2022-07-29T12:56:44.044Z,2.40
2022-07-29T12:59:17.173Z,2.88
2022-07-29T13:01:45.717Z,2.20
2022-07-29T13:04:26.434Z,2.38
2022-07-29T13:07:01.624Z,2.67
2022-07-29T13:09:39.249Z,2.45
2022-07-29T13:12:09.140Z,2.20
2022-07-29T13:14:38.372Z,2.42
2022-07-29T13:17:08.453Z,1.92
2022-07-29T13:19:41.109Z,2.22
2022-07-29T13:22:09.255Z,2.40
2022-07-29T13:24:48.108Z,2.45
2022-07-29T13:27:16.461Z,2.30
2022-07-29T13:29:44.191Z,2.40
2022-07-29T13:32:14.005Z,2.40
2022-07-29T13:34:43.070Z,2.22
2022-07-29T13:37:10.971Z,2.15
2022-07-29T13:39:39.180Z,2.35
2022-07-29T13:42:10.880Z,2.33
2022-07-29T13:44:39.072Z,2.45
2022-07-29T13:47:07.280Z,2.08
2022-07-29T13:49:35.345Z,2.63
2022-07-29T13:52:08.192Z,2.35
2022-07-29T13:54:41.938Z,2.30
2022-07-29T13:57:12.055Z,2.25
2022-07-29T13:59:40.071Z,2.20
2022-07-29T14:02:08.087Z,2.70
2022-07-29T14:04:35.895Z,2.10
2022-07-29T14:07:08.778Z,2.42
2022-07-29T14:09:41.248Z,2.20
2022-07-29T14:12:10.501Z,2.35
2022-07-29T14:14:38.459Z,2.75
2022-07-29T14:17:09.356Z,2.20
2022-07-29T14:19:38.951Z,2.67
2022-07-29T14:22:10.907Z,2.40
2022-07-29T14:24:39.652Z,2.30
2022-07-29T14:27:07.929Z,2.50
2022-07-29T14:29:38.143Z,2.58
2022-07-29T14:32:07.869Z,2.50
2022-07-29T14:34:35.802Z,2.70
2022-07-29T14:37:06.018Z,2.17
2022-07-29T14:39:42.154Z,2.40
2022-07-29T14:42:12.395Z,2.30
2022-07-29T14:44:40.581Z,2.42
2022-07-29T14:47:09.194Z,2.30
2022-07-29T14:49:36.957Z,2.33
2022-07-29T14:52:05.128Z,2.10
2022-07-29T14:54:33.251Z,2.33
2022-07-29T14:57:02.332Z,2.38
2022-07-29T14:59:30.058Z,2.40
2022-07-29T15:01:58.366Z,2.67
2022-07-29T15:04:26.397Z,2.50
2022-07-29T15:06:54.143Z,2.45
2022-07-29T15:09:21.945Z,2.30
2022-07-29T15:11:49.690Z,2.50
2022-07-29T15:14:18.769Z,2.10
2022-07-29T15:16:48.022Z,2.50
2022-07-29T15:19:16.319Z,2.35
2022-07-29T15:21:48.672Z,2.33
2022-07-29T15:24:17.002Z,2.10
2022-07-29T15:26:45.291Z,2.53
2022-07-29T15:29:13.229Z,2.45
2022-07-29T15:31:42.522Z,2.10
2022-07-29T15:34:10.325Z,2.10
2022-07-29T15:36:54.019Z,2.35
2022-07-29T15:39:22.894Z,2.35
2022-07-29T15:41:51.613Z,2.72
2022-07-29T15:44:19.451Z,2.25
2022-07-29T15:47:06.138Z,2.53
2022-07-29T15:49:48.337Z,2.35
2022-07-29T15:52:19.350Z,2.40
2022-07-29T15:54:54.392Z,2.70
2022-07-29T15:57:22.292Z,2.30
2022-07-29T15:59:50.084Z,2.33
2022-07-29T16:02:19.173Z,2.38
2022-07-29T16:04:47.217Z,2.50
2022-07-29T16:07:15.380Z,2.70
2022-07-29T16:09:43.413Z,2.30
2022-07-29T16:12:14.739Z,2.47
2022-07-29T16:14:43.638Z,2.40
2022-07-29T16:17:14.260Z,2.50
2022-07-29T16:19:45.345Z,2.60
2022-07-29T16:22:13.836Z,2.20
2022-07-29T16:24:41.791Z,2.55
2022-07-29T16:27:09.709Z,2.60
2022-07-29T16:29:37.851Z,2.40
2022-07-29T16:32:06.455Z,2.70
2022-07-29T16:34:34.602Z,2.88
2022-07-29T16:37:04.202Z,2.78
2022-07-29T16:39:32.387Z,2.60
2022-07-29T16:42:02.266Z,2.20
2022-07-29T16:44:31.811Z,2.50
2022-07-29T16:47:00.206Z,2.53
2022-07-29T16:49:29.143Z,2.65
2022-07-29T16:51:56.961Z,2.38
2022-07-29T16:54:26.016Z,2.30
2022-07-29T16:56:53.900Z,2.50
2022-07-29T16:59:21.679Z,3.45
2022-07-29T17:01:49.845Z,2.83
2022-07-29T17:04:17.705Z,2.38
2022-07-29T17:06:45.487Z,2.40
2022-07-29T17:09:15.055Z,2.33
2022-07-29T17:11:52.402Z,2.38
2022-07-29T17:14:24.078Z,2.38
2022-07-29T17:17:00.397Z,2.42
2022-07-29T17:19:32.007Z,2.15
2022-07-29T17:22:09.426Z,2.28
2022-07-29T17:24:39.826Z,2.25
2022-07-29T17:27:10.189Z,2.58
2022-07-29T17:29:38.665Z,2.50
2022-07-29T17:32:07.815Z,2.20
2022-07-29T17:34:36.066Z,2.50
2022-07-29T17:37:04.285Z,2.38
2022-07-29T17:39:32.795Z,2.53
2022-07-29T17:42:00.593Z,2.40
2022-07-29T17:44:29.686Z,2.20
2022-07-29T17:46:57.689Z,2.47
2022-07-29T17:49:26.826Z,2.50
2022-07-29T17:51:58.960Z,2.30
2022-07-29T17:54:28.769Z,2.28
2022-07-29T17:56:56.985Z,2.30
2022-07-29T17:59:25.081Z,2.35
2022-07-29T18:01:54.304Z,2.53
2022-07-29T18:04:23.478Z,2.20
2022-07-29T18:06:51.550Z,2.35
2022-07-29T18:09:19.859Z,2.28
2022-07-29T18:11:48.762Z,2.60
2022-07-29T18:14:16.989Z,2.47
2022-07-29T18:16:44.970Z,2.25
2022-07-29T18:19:14.204Z,2.67
2022-07-29T18:21:51.229Z,2.40
2022-07-29T18:24:25.213Z,2.38
2022-07-29T18:26:53.169Z,2.42
2022-07-29T18:29:20.922Z,2.40
2022-07-29T18:31:48.725Z,2.20
2022-07-29T18:34:17.946Z,2.00
2022-07-29T18:36:46.093Z,2.20
2022-07-29T18:39:21.260Z,2.10
2022-07-29T18:41:50.247Z,2.08
2022-07-29T18:44:18.894Z,2.10
2022-07-29T18:46:55.432Z,2.15
2022-07-29T18:49:24.977Z,2.35
2022-07-29T18:51:53.161Z,2.45
2022-07-29T18:54:20.946Z,2.15
2022-07-29T18:56:48.686Z,2.15
2022-07-29T18:59:19.603Z,2.30
2022-07-29T19:01:47.519Z,2.22
2022-07-29T19:04:15.569Z,2.20
2022-07-29T19:06:45.213Z,2.28
2022-07-29T19:09:13.184Z,2.22
2022-07-29T19:11:41.022Z,2.30
2022-07-29T19:14:08.787Z,2.38
2022-07-29T19:16:36.633Z,2.03
2022-07-29T19:19:04.803Z,2.10
2022-07-29T19:21:32.605Z,2.10
2022-07-29T19:24:06.592Z,2.70
2022-07-29T19:26:38.935Z,2.40
2022-07-29T19:29:06.715Z,2.40
2022-07-29T19:31:34.551Z,2.65
2022-07-29T19:34:02.404Z,2.22
2022-07-29T19:36:31.272Z,2.35
2022-07-29T19:39:00.027Z,2.30
2022-07-29T19:41:29.451Z,2.50
2022-07-29T19:43:57.648Z,2.38
2022-07-29T19:46:28.721Z,2.30
2022-07-29T19:48:57.355Z,2.08
2022-07-29T19:51:25.283Z,2.03
2022-07-29T19:53:53.341Z,2.03
2022-07-29T19:56:21.078Z,1.80
2022-07-29T19:58:50.625Z,2.00
2022-07-29T20:01:19.861Z,2.42
2022-07-29T20:03:47.782Z,2.20
2022-07-29T20:06:15.616Z,2.10
2022-07-29T20:08:43.358Z,2.28
2022-07-29T20:11:11.200Z,1.98
2022-07-29T20:13:39.058Z,2.20
2022-07-29T20:16:08.783Z,2.28
2022-07-29T20:18:36.687Z,2.00
2022-07-29T20:21:04.991Z,2.25
2022-07-29T20:23:33.516Z,2.35
2022-07-29T20:26:01.616Z,2.17
2022-07-29T20:28:29.543Z,1.85
2022-07-29T20:30:57.428Z,1.83
2022-07-29T20:33:26.610Z,2.25
2022-07-29T20:35:54.595Z,1.90
2022-07-29T20:38:22.353Z,1.90
2022-07-29T20:40:50.756Z,2.00
2022-07-29T20:43:18.544Z,1.90
2022-07-29T20:45:46.353Z,2.10
2022-07-29T20:48:14.372Z,2.25
2022-07-29T20:50:44.967Z,1.80
2022-07-29T20:53:12.782Z,1.88
2022-07-29T20:55:40.549Z,1.95
2022-07-29T20:58:08.419Z,2.13
2022-07-29T21:00:36.169Z,2.03
2022-07-29T21:03:04.143Z,2.00
2022-07-29T21:05:32.769Z,2.00
2022-07-29T21:08:01.848Z,1.80
2022-07-29T21:10:29.792Z,2.22
2022-07-29T21:12:57.567Z,2.17
2022-07-29T21:15:27.144Z,2.10
2022-07-29T21:18:00.566Z,2.03
2022-07-29T21:20:29.118Z,1.85
2022-07-29T21:22:57.924Z,2.15
2022-07-29T21:25:27.389Z,2.03
2022-07-29T21:28:12.986Z,2.05
2022-07-29T21:30:40.721Z,1.70
2022-07-29T21:33:08.503Z,1.88
2022-07-29T21:36:06.220Z,1.85
2022-07-29T21:38:24.383Z,2.10
2022-07-29T21:40:54.121Z,1.83
2022-07-29T21:43:22.216Z,2.25
2022-07-29T21:45:51.098Z,1.90
2022-07-29T21:48:19.412Z,1.80
2022-07-29T21:50:47.828Z,2.15
2022-07-29T21:53:16.106Z,2.05
2022-07-29T21:55:44.251Z,1.98
2022-07-29T21:58:15.364Z,1.90
2022-07-29T22:00:43.941Z,2.25
2022-07-29T22:03:11.985Z,2.33
2022-07-29T22:05:39.932Z,2.00
2022-07-29T22:08:08.022Z,2.15
2022-07-29T22:10:35.987Z,2.00
2022-07-29T22:13:04.224Z,2.13
2022-07-29T22:15:33.343Z,2.10
2022-07-29T22:18:01.111Z,2.20
2022-07-29T22:20:29.004Z,2.13
2022-07-29T22:22:56.757Z,1.85
2022-07-29T22:25:24.508Z,2.10
2022-07-29T22:27:52.288Z,2.55
2022-07-29T22:30:20.035Z,2.10
2022-07-29T22:32:49.637Z,2.15
2022-07-29T22:35:18.485Z,1.95
2022-07-29T22:37:46.240Z,2.08
2022-07-29T22:40:14.158Z,2.13
2022-07-29T22:42:41.877Z,2.47
2022-07-29T22:45:10.912Z,2.22
2022-07-29T22:47:48.101Z,2.40
2022-07-29T22:50:18.293Z,2.30
2022-07-29T22:52:46.902Z,2.33
2022-07-29T22:55:15.022Z,2.47
2022-07-29T22:57:42.827Z,2.38
2022-07-29T23:00:11.708Z,2.00
2022-07-29T23:02:40.344Z,2.15
2022-07-29T23:05:10.207Z,2.45
2022-07-29T23:07:39.501Z,2.20
2022-07-29T23:10:07.808Z,1.90
2022-07-29T23:12:35.612Z,2.25
2022-07-29T23:15:04.463Z,1.98
2022-07-29T23:17:36.119Z,2.40
2022-07-29T23:20:06.397Z,2.10
2022-07-29T23:22:34.286Z,2.08
2022-07-29T23:25:03.447Z,2.30
2022-07-29T23:27:31.213Z,2.15
2022-07-29T23:29:58.994Z,2.30
2022-07-29T23:32:26.760Z,2.28
2022-07-29T23:34:54.494Z,2.00
2022-07-29T23:37:22.273Z,2.25
2022-07-29T23:39:50.018Z,2.20
2022-07-29T23:42:19.116Z,2.22
2022-07-29T23:44:46.830Z,2.30
2022-07-29T23:47:14.629Z,1.98
2022-07-29T23:49:42.355Z,2.22
2022-07-29T23:52:10.153Z,2.38
2022-07-29T23:54:37.895Z,3.00
2022-07-29T23:57:05.658Z,2.20
2022-07-29T23:59:34.761Z,2.53
